Latest Weather Observations for Mount Keith

IDW60801

Issued at 8:32 pm WST Tuesday 3 March 2015 (issued every 30 minutes, with the page automatically refreshed every 10 minutes)

About weather observations | Map of weather stations | Latest weather observations for WA | Other Formats
Station Details ID: 512019 Name: MOUNT KEITH Lat: -27.29 Lon: 120.55 Height: 542.33 m
Data from the previous 72 hours. | See also: Recent months for locations in Western Australia
Date/Time
WST
Temp
°C
App
Temp
°C
Dew
Point
Rel
Hum
%
Delta-T
°C
Wind Press
QNH
hPa
Press
MSL
hPa
Rain
since 9 am
mm
Dir
 
Spd
km/h
Gust
km/h
Spd
kts
Gust
kts
03/08:30pm 19.1 16.8 15.8 81 2.0 SE 22 32 12 17 1019.2 1015.5 0.0
03/08:00pm 19.3 17.1 16.0 81 2.0 SE 22 32 12 17 1018.8 1015.2 0.0
03/07:30pm 19.6 17.4 15.9 79 2.3 SE 22 28 12 15 1018.0 1014.4 0.0
03/07:00pm 19.8 17.6 15.9 78 2.4 SE 22 30 12 16 1017.4 1013.7 0.0
03/06:30pm 20.1 18.3 16.1 78 2.5 SE 20 32 11 17 1017.1 1013.4 0.0
03/06:00pm 20.4 17.8 16.0 76 2.7 SE 24 32 13 17 1016.8 1013.2 0.0
03/05:30pm 20.9 18.4 16.1 74 3.0 SE 24 30 13 16 1016.5 1012.9 0.0
03/05:00pm 21.0 18.6 16.4 75 2.8 SE 24 33 13 18 1016.3 1012.7 0.0
03/04:30pm 21.1 18.4 16.7 76 2.7 SE 26 32 14 17 1016.5 1012.9 0.0
03/04:00pm 21.1 18.5 16.9 77 2.6 SSE 26 35 14 19 1016.5 1012.9 0.0
03/03:30pm 21.9 19.7 16.8 73 3.2 SE 24 32 13 17 1016.4 1012.8 0.0
03/03:00pm 21.5 18.8 16.7 74 3.0 SE 26 32 14 17 1016.6 1013.0 0.0
03/02:30pm 21.1 18.8 16.7 76 2.7 SE 24 35 13 19 1016.8 1013.2 0.0
03/02:00pm 21.3 19.4 16.7 75 2.9 SE 22 35 12 19 1017.1 1013.4 0.0
03/01:30pm 21.3 19.2 17.1 77 2.6 SE 24 32 13 17 1017.3 1013.6 0.0
03/01:00pm 20.9 18.7 16.9 78 2.5 SE 24 32 13 17 1017.7 1014.0 0.0
03/12:30pm 21.0 19.4 16.6 76 2.7 ESE 20 28 11 15 1017.6 1013.9 0.0
03/12:00pm 21.2 19.4 17.0 77 2.6 ESE 22 30 12 16 1017.6 1013.9 0.0
03/11:30am 20.2 17.2 16.8 81 2.1 ESE 28 35 15 19 1017.8 1014.2 0.0
03/11:00am 20.0 18.2 17.0 83 1.9 ESE 22 32 12 17 1018.0 1014.4 0.0
03/10:54am 19.7 17.3 16.5 82 2.0 ESE 24 32 13 17 1018.1 1014.5 0.0
03/10:30am 19.3 17.7 16.5 84 1.7 ESE 20 30 11 16 1018.4 1014.8 0.0
03/10:00am 19.2 17.4 17.0 87 1.4 ESE 22 30 12 16 1018.2 1014.6 0.0
03/09:30am 18.9 16.7 17.0 89 1.2 ESE 24 33 13 18 1017.9 1014.3 0.0
03/09:00am 18.6 16.9 17.1 91 0.9 SE 22 30 12 16 1017.9 1014.3 1.2
03/08:30am 18.0 16.4 17.5 97 0.3 ESE 22 32 12 17 1017.7 1014.0 1.2
03/08:00am 17.5 16.4 17.2 98 0.2 ESE 19 24 10 13 1017.6 1013.9 1.2
03/07:30am 17.4 16.2 17.1 98 0.2 ESE 19 26 10 14 1017.1 1013.4 1.2
03/07:00am 17.3 16.4 16.8 97 0.3 ESE 17 24 9 13 1017.1 1013.4 0.8
03/06:30am 17.4 15.0 16.4 94 0.6 SE 24 33 13 18 1016.4 1012.8 0.8
03/06:00am 17.9 16.3 16.4 91 0.9 SE 20 26 11 14 1015.8 1012.1 0.8
03/05:30am 17.8 16.3 16.3 91 0.9 SE 19 24 10 13 1015.5 1011.8 0.8
03/05:00am 17.6 16.6 16.5 93 0.7 SE 17 24 9 13 1015.1 1011.4 0.8
03/04:30am 17.7 16.2 16.4 92 0.8 ESE 19 28 10 15 1014.4 1010.7 0.8
03/04:00am 17.5 17.3 16.7 95 0.5 E 13 19 7 10 1014.4 1010.7 0.8
03/03:55am 17.4 17.2 16.6 95 0.5 ESE 13 19 7 10 1014.3 1010.6 0.8
03/03:46am 17.4 17.2 16.6 95 0.5 ESE 13 19 7 10 1014.4 1010.7 0.8
03/03:30am 17.5 16.5 16.7 95 0.5 ESE 17 20 9 11 1014.4 1010.7 0.8
03/03:00am 17.6 16.8 17.0 96 0.4 SE 17 24 9 13 1014.6 1011.0 0.8
03/02:30am 17.6 16.8 17.0 96 0.4 ESE 17 26 9 14 1014.6 1011.0 0.8
03/02:00am 17.7 16.7 16.7 94 0.6 ESE 17 26 9 14 1014.8 1011.2 0.8
03/01:30am 18.2 17.2 16.5 90 1.0 ESE 17 20 9 11 1015.4 1011.7 0.4
03/01:00am 18.2 15.8 16.5 90 1.0 E 24 33 13 18 1015.2 1011.5 0.4
03/12:49am 18.3 15.6 16.5 89 1.1 ESE 26 37 14 20 1015.4 1011.7 0.4
03/12:46am 18.4 16.0 16.4 88 1.2 ESE 24 35 13 19 1015.4 1011.7 0.4
03/12:30am 18.6 16.7 16.6 88 1.2 E 22 33 12 18 1015.4 1011.7 0.4
03/12:00am 18.6 16.8 16.9 90 1.0 ESE 22 28 12 15 1015.6 1011.9 0.4
 
Date/Time
WST
Temp
°C
App
Temp
°C
Dew
Point
Rel
Hum
%
Delta-T
°C
Wind Press
QNH
hPa
Press
MSL
hPa
Rain
since 9 am
mm
Dir
 
Spd
km/h
Gust
km/h
Spd
kts
Gust
kts
02/11:39pm 18.9 17.0 16.7 87 1.4 E 22 33 12 18 1015.8 1012.1 0.4
02/11:37pm 18.9 17.4 16.7 87 1.4 E 20 33 11 18 1015.8 1012.1 0.4
02/11:30pm 19.0 17.1 16.8 87 1.4 ESE 22 35 12 19 1015.7 1012.0 0.4
02/11:00pm 18.9 17.5 17.0 89 1.2 ESE 20 30 11 16 1015.5 1011.8 0.4
02/10:50pm 19.0 17.3 17.1 89 1.2 ESE 22 30 12 16 1015.4 1011.7 0.4
02/10:30pm 19.1 17.4 17.1 88 1.2 ESE 22 33 12 18 1015.4 1011.7 0.4
02/10:25pm 19.0 16.9 17.1 89 1.2 ESE 24 35 13 19 1015.4 1011.7 0.4
02/10:00pm 19.0 16.6 17.3 90 1.1 ESE 26 39 14 21 1015.7 1012.0 0.4
02/09:30pm 19.3 17.7 17.4 89 1.2 SE 22 30 12 16 1015.8 1012.1 0.4
02/09:00pm 19.5 18.4 17.8 90 1.1 ESE 20 32 11 17 1015.3 1011.6 0.4
02/08:30pm 19.0 17.3 18.0 94 0.6 ESE 24 33 13 18 1015.2 1011.5 0.4
02/08:00pm 19.7 18.0 18.2 91 1.0 SE 24 32 13 17 1014.4 1010.7 0.4
02/07:30pm 19.6 18.4 18.3 92 0.8 ESE 22 30 12 16 1013.8 1010.1 0.4
02/07:00pm 19.6 18.7 18.3 92 0.8 SE 20 28 11 15 1013.5 1009.8 0.4
02/06:30pm 19.6 18.4 18.3 92 0.8 SE 22 30 12 16 1012.5 1008.8 0.4
02/06:00pm 19.6 18.9 18.6 94 0.6 SE 20 30 11 16 1012.0 1008.3 0.4
02/05:30pm 19.8 18.7 18.6 93 0.8 SSE 22 33 12 18 1011.7 1008.0 0.4
02/05:00pm 20.0 19.1 19.0 94 0.6 SSE 22 28 12 15 1011.4 1007.7 0.4
02/04:30pm 19.9 19.6 19.1 95 0.5 SSE 19 26 10 14 1011.4 1007.7 0.2
02/04:00pm 19.9 19.1 19.2 96 0.5 SSE 22 30 12 16 1010.8 1007.1 0.2
02/03:30pm 20.6 20.8 19.4 93 0.8 SSE 17 20 9 11 1011.0 1007.3 0.0
02/03:00pm 20.7 20.5 19.4 92 0.8 SSE 19 24 10 13 1011.2 1007.5 0.0
02/02:30pm 21.7 22.4 19.6 88 1.4 SSE 15 19 8 10 1011.6 1007.9 0.0
02/02:00pm 21.6 22.9 20.1 91 1.0 SSE 13 17 7 9 1011.7 1008.0 0.0
02/01:30pm 20.9 21.6 19.7 93 0.8 S 15 19 8 10 1011.6 1007.9 0.0
02/01:00pm 21.2 22.7 18.9 87 1.5 S 9 11 5 6 1011.7 1008.0 0.0
02/12:30pm 20.7 22.3 19.2 91 1.0 S 9 11 5 6 1011.7 1008.0 0.0
02/12:00pm 20.4 22.6 19.1 92 0.8 S 6 7 3 4 1011.9 1008.2 0.0
02/11:30am 20.2 22.2 18.7 91 1.0 SSW 6 7 3 4 1012.3 1008.6 0.0
02/11:00am 20.2 22.9 18.7 91 1.0 NNE 2 7 1 4 1012.3 1008.6 0.0
02/10:30am 19.8 20.7 18.5 92 0.8 NE 11 17 6 9 1012.1 1008.4 0.0
02/10:00am 19.6 19.7 18.4 93 0.8 E 15 20 8 11 1011.7 1008.0 0.0
02/09:30am 19.3 19.9 18.5 95 0.5 ESE 13 19 7 10 1011.9 1008.2 0.0
02/09:00am 19.0 19.9 18.3 96 0.4 SE 11 15 6 8 1012.0 1008.3 32.4
02/08:30am 18.6 19.0 18.1 97 0.3 ESE 13 15 7 8 1011.4 1007.7 32.4
02/08:00am 18.2 18.4 17.7 97 0.3 ESE 13 20 7 11 1010.7 1007.0 32.4
02/07:30am 18.1 18.7 17.6 97 0.3 E 11 19 6 10 1010.9 1007.2 32.2
02/07:00am 17.9 17.2 17.4 97 0.3 E 17 24 9 13 1010.8 1007.1 32.0
02/06:30am 17.8 17.1 17.3 97 0.3 ENE 17 24 9 13 1010.5 1006.8 31.8
02/06:00am 18.1 17.9 17.5 96 0.4 ENE 15 20 8 11 1010.3 1006.6 31.6
02/05:53am 18.1 18.2 17.5 96 0.4 E 13 20 7 11 1010.2 1006.5 31.6
02/05:30am 18.1 18.2 17.5 96 0.4 E 13 19 7 10 1010.1 1006.4 31.6
02/05:00am 17.8 16.7 17.2 96 0.4 ESE 19 22 10 12 1009.7 1006.0 31.6
02/04:30am 17.4 15.3 17.1 98 0.2 ESE 24 35 13 19 1009.1 1005.4 31.4
02/04:00am 17.3 15.9 17.0 98 0.2 SE 20 30 11 16 1010.4 1006.7 31.2
02/03:30am 17.2 15.8 16.9 98 0.2 SSE 20 26 11 14 1010.4 1006.7 30.0
02/03:00am 17.2 15.4 16.9 98 0.2 SSE 22 30 12 16 1010.7 1007.0 28.2
02/02:49am 17.0 14.7 16.7 98 0.2 SSE 24 30 13 16 1011.0 1007.3 27.2
02/02:30am 17.0 14.7 16.7 98 0.2 S 24 33 13 18 1011.9 1008.2 25.2
02/02:00am 17.4 14.5 17.1 98 0.2 S 28 41 15 22 1012.4 1008.7 20.8
02/01:43am 17.6 14.0 17.1 97 0.3 S 32 50 17 27 1012.4 1008.7 18.2
02/01:34am 17.9 14.4 17.4 97 0.3 SSW 32 44 17 24 1011.8 1008.1 17.6
02/01:30am 18.3 15.7 17.8 97 0.3 SW 28 35 15 19 1012.1 1008.4 16.8
02/01:00am 19.1 19.7 18.6 97 0.3 SE 13 17 7 9 1011.3 1007.6 9.8
02/12:40am 19.0 18.4 18.5 97 0.3 ESE 19 24 10 13 1010.6 1006.9 8.8
02/12:30am 19.0 18.8 18.5 97 0.3 ESE 17 24 9 13 1010.5 1006.8 8.0
02/12:20am 19.0 18.7 18.3 96 0.4 ESE 17 22 9 12 1010.5 1006.8 7.2
02/12:00am 19.1 18.4 18.3 95 0.5 ESE 19 26 10 14 1010.7 1007.0 5.8
 
Date/Time
WST
Temp
°C
App
Temp
°C
Dew
Point
Rel
Hum
%
Delta-T
°C
Wind Press
QNH
hPa
Press
MSL
hPa
Rain
since 9 am
mm
Dir
 
Spd
km/h
Gust
km/h
Spd
kts
Gust
kts
01/11:30pm 19.2 18.4 18.4 95 0.5 ESE 20 32 11 17 1010.8 1007.1 5.4
01/11:00pm 19.3 18.5 18.5 95 0.5 ESE 20 28 11 15 1010.7 1007.0 5.4
01/10:30pm 19.1 18.3 18.4 96 0.4 ESE 20 26 11 14 1011.0 1007.3 5.4
01/10:02pm 19.2 18.6 18.5 96 0.4 ESE 19 24 10 13 1011.3 1007.6 5.4
01/10:00pm 19.2 18.6 18.5 96 0.4 ESE 19 30 10 16 1011.3 1007.6 5.4
01/09:30pm 19.5 18.8 18.3 93 0.8 ESE 19 26 10 14 1011.8 1008.1 4.4
01/09:00pm 19.5 18.7 18.5 94 0.6 SE 20 28 11 15 1011.7 1008.0 4.4
01/08:30pm 19.6 19.1 18.6 94 0.6 SE 19 24 10 13 1011.7 1008.0 4.4
01/08:00pm 19.7 19.7 18.9 95 0.5 ESE 17 24 9 13 1011.2 1007.5 4.4
01/07:30pm 20.0 20.1 19.2 95 0.5 ESE 17 24 9 13 1010.6 1006.9 4.4
01/07:00pm 19.9 20.0 19.1 95 0.5 ESE 17 22 9 12 1010.0 1006.3 4.4
01/06:51pm 20.0 19.7 19.2 95 0.5 ESE 19 24 10 13 1010.0 1006.3 4.4
01/06:35pm 20.1 19.9 19.3 95 0.5 ESE 19 26 10 14 1009.8 1006.1 4.4
01/06:30pm 20.2 20.4 19.4 95 0.5 ESE 17 24 9 13 1009.8 1006.1 4.4
01/06:14pm 20.3 20.6 19.5 95 0.5 SE 17 24 9 13 1009.6 1005.9 4.4
01/06:00pm 20.4 20.3 19.6 95 0.5 SE 19 22 10 12 1009.6 1005.9 4.4
01/05:32pm 21.1 21.8 19.7 92 0.9 SSE 15 20 8 11 1010.1 1006.4 2.0
01/05:30pm 21.2 22.0 19.8 92 0.9 SSE 15 20 8 11 1010.0 1006.3 1.8
01/05:00pm 22.3 21.0 19.1 82 2.1 ESE 24 35 13 19 1009.3 1005.5 0.2
01/04:30pm 23.2 21.9 19.1 78 2.7 ESE 24 32 13 17 1009.1 1005.4 0.2
01/04:00pm 23.5 22.2 19.0 76 2.9 SE 24 32 13 17 1009.4 1005.6 0.2
01/03:30pm 24.5 24.1 19.3 73 3.4 ESE 20 30 11 16 1009.6 1005.9 0.2
01/03:00pm 25.8 25.6 19.7 69 4.0 ESE 20 28 11 15 1009.9 1006.2 0.2
01/02:30pm 25.7 25.6 20.0 71 3.8 ESE 20 26 11 14 1010.0 1006.3 0.2
01/02:00pm 24.6 24.9 19.7 74 3.2 E 17 24 9 13 1010.8 1007.1 0.2
01/01:30pm 24.7 24.7 19.8 74 3.2 ESE 19 26 10 14 1011.0 1007.3 0.2
01/01:00pm 24.7 25.0 20.4 77 2.9 ESE 19 24 10 13 1011.2 1007.5 0.2
01/12:30pm 24.4 25.0 20.3 78 2.7 E 17 20 9 11 1011.8 1008.1 0.2
01/12:00pm 23.8 24.4 20.3 81 2.3 E 17 22 9 12 1012.3 1008.6 0.2
01/11:30am 22.8 23.3 20.0 84 1.8 E 17 20 9 11 1012.9 1009.3 0.2
01/11:00am 23.3 23.3 20.1 82 2.1 ENE 20 30 11 16 1013.4 1009.7 0.2
01/10:30am 23.0 23.2 20.1 84 1.9 E 19 24 10 13 1013.8 1010.1 0.2
01/10:00am 22.7 22.6 20.0 85 1.8 ENE 20 28 11 15 1014.4 1010.7 0.2
01/09:30am 22.4 23.3 20.1 87 1.5 ENE 15 24 8 13 1014.8 1011.2 0.0
01/09:00am 21.7 23.5 20.3 92 0.9 ESE 11 15 6 8 1015.1 1011.4 1.8
01/08:30am 21.6 23.8 20.4 93 0.8 E 9 13 5 7 1014.9 1011.3 1.8
01/08:00am 21.6 22.4 19.9 90 1.1 NE 15 20 8 11 1014.5 1010.9 1.2
01/07:30am 21.9 22.3 19.8 88 1.4 NE 17 24 9 13 1013.9 1009.7 1.2
01/07:00am 21.9 23.0 19.6 87 1.5 NE 13 19 7 10 1013.6 1009.4 1.0
01/06:30am 21.9 23.4 19.8 88 1.4 NE 11 15 6 8 1013.3 1009.0 0.8
01/06:00am 22.1 24.0 19.8 87 1.5 NE 9 11 5 6 1013.2 1008.9 0.8
01/05:30am 22.1 24.4 19.8 87 1.5 ENE 7 9 4 5 1013.0 1008.8 0.8
01/05:00am 22.2 24.1 19.7 86 1.6 ENE 9 11 5 6 1013.2 1008.9 0.8
01/04:30am 22.1 24.4 19.8 87 1.5 ENE 7 11 4 6 1013.3 1009.0 0.8
01/04:00am 21.7 23.2 19.8 89 1.2 ENE 11 13 6 7 1013.4 1009.1 0.8
01/03:30am 22.2 23.2 19.4 84 1.8 ENE 13 20 7 11 1013.3 1009.0 0.6
01/03:00am 22.7 22.7 18.9 79 2.5 ENE 17 24 9 13 1012.8 1008.6 0.6
01/02:30am 22.9 22.7 18.4 76 2.9 ENE 17 24 9 13 1012.6 1008.4 0.6
01/02:00am 23.0 22.2 18.5 76 2.9 E 20 28 11 15 1012.3 1008.1 0.6
01/01:30am 23.1 22.0 18.6 76 2.9 E 22 33 12 18 1012.2 1008.0 0.6
01/01:00am 23.1 22.5 18.8 77 2.8 E 20 28 11 15 1012.7 1008.5 0.6
01/12:30am 23.3 22.3 18.8 76 2.9 E 22 30 12 16 1013.0 1008.8 0.6
01/12:00am 23.3 22.9 19.0 77 2.8 E 19 30 10 16 1013.4 1009.1 0.6
 
Date/Time
WST
Temp
°C
App
Temp
°C
Dew
Point
Rel
Hum
%
Delta-T
°C
Wind Press
QNH
hPa
Press
MSL
hPa
Rain
since 9 am
mm
Dir
 
Spd
km/h
Gust
km/h
Spd
kts
Gust
kts
28/11:30pm 23.3 22.0 19.0 77 2.8 ENE 24 39 13 21 1013.7 1009.5 0.6
28/11:00pm 23.7 21.5 19.6 78 2.7 ENE 30 43 16 23 1013.8 1009.6 0.4
28/10:30pm 24.7 22.8 19.3 72 3.5 ENE 28 39 15 21 1013.8 1009.6 0.4
28/10:00pm 25.2 23.2 19.1 69 4.0 E 28 43 15 23 1013.6 1009.4 0.4
28/09:30pm 25.7 24.5 20.0 71 3.8 E 26 37 14 20 1012.8 1008.6 0.4
28/09:00pm 25.6 26.6 21.1 76 3.0 ESE 17 22 9 12 1012.4 1008.2 0.4

Other Formats:

Comma delimited format used in spreadsheet applications
http://www.bom.gov.au/fwo/IDW60801/IDW60801.99434.axf

JavaScript Object Notation format (JSON) in row-major order
http://www.bom.gov.au/fwo/IDW60801/IDW60801.99434.json